sensor_id;sensor_type;location;lat;lon;timestamp;P1;durP1;ratioP1;P2;durP2;ratioP2
21339;SDS011;10828;47.064;15.422;2023-08-06T00:01:48;4.30;;;2.03;;
21339;SDS011;10828;47.064;15.422;2023-08-06T00:04:14;1.13;;;0.60;;
21339;SDS011;10828;47.064;15.422;2023-08-06T00:06:39;0.70;;;0.40;;
21339;SDS011;10828;47.064;15.422;2023-08-06T00:09:05;0.93;;;0.40;;
21339;SDS011;10828;47.064;15.422;2023-08-06T00:11:31;0.97;;;0.40;;
21339;SDS011;10828;47.064;15.422;2023-08-06T00:13:57;0.80;;;0.47;;
21339;SDS011;10828;47.064;15.422;2023-08-06T00:16:22;0.60;;;0.37;;
21339;SDS011;10828;47.064;15.422;2023-08-06T00:18:48;0.80;;;0.50;;
21339;SDS011;10828;47.064;15.422;2023-08-06T00:21:13;1.27;;;0.60;;
21339;SDS011;10828;47.064;15.422;2023-08-06T00:23:39;9.23;;;1.03;;
21339;SDS011;10828;47.064;15.422;2023-08-06T00:26:06;4.73;;;0.90;;
21339;SDS011;10828;47.064;15.422;2023-08-06T00:28:32;1.97;;;0.80;;
21339;SDS011;10828;47.064;15.422;2023-08-06T00:30:57;2.70;;;0.60;;
21339;SDS011;10828;47.064;15.422;2023-08-06T00:33:24;0.93;;;0.53;;
21339;SDS011;10828;47.064;15.422;2023-08-06T00:35:50;1.03;;;0.70;;
21339;SDS011;10828;47.064;15.422;2023-08-06T00:38:16;1.63;;;0.50;;
21339;SDS011;10828;47.064;15.422;2023-08-06T00:40:42;1.07;;;0.60;;
21339;SDS011;10828;47.064;15.422;2023-08-06T00:43:07;1.97;;;0.70;;
21339;SDS011;10828;47.064;15.422;2023-08-06T00:45:34;3.57;;;0.50;;
21339;SDS011;10828;47.064;15.422;2023-08-06T00:48:01;1.03;;;0.53;;
21339;SDS011;10828;47.064;15.422;2023-08-06T00:50:28;0.70;;;0.60;;
21339;SDS011;10828;47.064;15.422;2023-08-06T00:52:54;1.40;;;0.57;;
21339;SDS011;10828;47.064;15.422;2023-08-06T00:55:20;1.30;;;0.70;;
21339;SDS011;10828;47.064;15.422;2023-08-06T00:57:46;3.13;;;0.70;;
21339;SDS011;10828;47.064;15.422;2023-08-06T01:00:12;1.43;;;0.70;;
21339;SDS011;10828;47.064;15.422;2023-08-06T01:02:38;3.13;;;0.70;;
21339;SDS011;10828;47.064;15.422;2023-08-06T01:05:03;2.57;;;0.90;;
21339;SDS011;10828;47.064;15.422;2023-08-06T01:10:19;1.90;;;0.90;;
21339;SDS011;10828;47.064;15.422;2023-08-06T01:13:03;1.40;;;0.80;;
21339;SDS011;10828;47.064;15.422;2023-08-06T01:15:50;2.17;;;0.63;;
21339;SDS011;10828;47.064;15.422;2023-08-06T01:18:22;2.03;;;0.90;;
21339;SDS011;10828;47.064;15.422;2023-08-06T01:20:47;2.83;;;0.80;;
21339;SDS011;10828;47.064;15.422;2023-08-06T01:23:14;3.17;;;0.80;;
21339;SDS011;10828;47.064;15.422;2023-08-06T01:25:46;4.40;;;0.93;;
21339;SDS011;10828;47.064;15.422;2023-08-06T01:28:44;1.53;;;0.90;;
21339;SDS011;10828;47.064;15.422;2023-08-06T01:31:14;1.97;;;1.00;;
21339;SDS011;10828;47.064;15.422;2023-08-06T01:33:44;2.97;;;1.23;;
21339;SDS011;10828;47.064;15.422;2023-08-06T01:36:12;5.77;;;1.40;;
21339;SDS011;10828;47.064;15.422;2023-08-06T01:38:40;3.27;;;1.40;;
21339;SDS011;10828;47.064;15.422;2023-08-06T01:41:06;4.93;;;1.13;;
21339;SDS011;10828;47.064;15.422;2023-08-06T01:43:31;4.13;;;1.37;;
21339;SDS011;10828;47.064;15.422;2023-08-06T01:45:57;3.17;;;1.50;;
21339;SDS011;10828;47.064;15.422;2023-08-06T01:48:22;3.87;;;1.23;;
21339;SDS011;10828;47.064;15.422;2023-08-06T01:50:48;2.93;;;1.10;;
21339;SDS011;10828;47.064;15.422;2023-08-06T01:53:13;3.07;;;0.97;;
21339;SDS011;10828;47.064;15.422;2023-08-06T01:55:39;2.00;;;1.20;;
21339;SDS011;10828;47.064;15.422;2023-08-06T01:58:04;3.10;;;1.27;;
21339;SDS011;10828;47.064;15.422;2023-08-06T02:00:30;4.43;;;1.30;;
21339;SDS011;10828;47.064;15.422;2023-08-06T02:02:56;3.70;;;1.60;;
21339;SDS011;10828;47.064;15.422;2023-08-06T02:05:21;12.23;;;1.83;;
21339;SDS011;10828;47.064;15.422;2023-08-06T02:07:47;4.20;;;1.50;;
21339;SDS011;10828;47.064;15.422;2023-08-06T02:10:12;2.73;;;1.60;;
21339;SDS011;10828;47.064;15.422;2023-08-06T02:12:38;2.03;;;1.23;;
21339;SDS011;10828;47.064;15.422;2023-08-06T02:15:04;4.30;;;2.07;;
21339;SDS011;10828;47.064;15.422;2023-08-06T02:17:30;6.73;;;4.10;;
21339;SDS011;10828;47.064;15.422;2023-08-06T02:19:55;6.10;;;1.70;;
21339;SDS011;10828;47.064;15.422;2023-08-06T02:22:21;7.33;;;1.40;;
21339;SDS011;10828;47.064;15.422;2023-08-06T02:24:48;1.83;;;0.93;;
21339;SDS011;10828;47.064;15.422;2023-08-06T02:27:14;1.50;;;0.93;;
21339;SDS011;10828;47.064;15.422;2023-08-06T02:29:40;3.77;;;1.10;;
21339;SDS011;10828;47.064;15.422;2023-08-06T02:32:06;1.70;;;1.00;;
21339;SDS011;10828;47.064;15.422;2023-08-06T02:34:32;2.87;;;1.27;;
21339;SDS011;10828;47.064;15.422;2023-08-06T02:36:58;4.67;;;1.10;;
21339;SDS011;10828;47.064;15.422;2023-08-06T02:39:23;3.83;;;1.70;;
21339;SDS011;10828;47.064;15.422;2023-08-06T02:41:49;3.50;;;1.37;;
21339;SDS011;10828;47.064;15.422;2023-08-06T02:44:14;2.77;;;1.37;;
21339;SDS011;10828;47.064;15.422;2023-08-06T02:46:40;1.93;;;1.07;;
21339;SDS011;10828;47.064;15.422;2023-08-06T02:49:06;5.77;;;1.33;;
21339;SDS011;10828;47.064;15.422;2023-08-06T02:51:31;3.60;;;1.20;;
21339;SDS011;10828;47.064;15.422;2023-08-06T02:53:57;2.77;;;1.23;;
21339;SDS011;10828;47.064;15.422;2023-08-06T02:56:22;1.93;;;1.10;;
21339;SDS011;10828;47.064;15.422;2023-08-06T02:58:48;2.50;;;1.30;;
21339;SDS011;10828;47.064;15.422;2023-08-06T03:01:13;2.00;;;1.03;;
21339;SDS011;10828;47.064;15.422;2023-08-06T03:03:39;2.57;;;1.20;;
21339;SDS011;10828;47.064;15.422;2023-08-06T03:06:05;3.83;;;1.67;;
21339;SDS011;10828;47.064;15.422;2023-08-06T03:08:30;7.97;;;1.40;;
21339;SDS011;10828;47.064;15.422;2023-08-06T03:10:56;4.67;;;1.30;;
21339;SDS011;10828;47.064;15.422;2023-08-06T03:13:22;4.13;;;1.63;;
21339;SDS011;10828;47.064;15.422;2023-08-06T03:15:58;4.13;;;1.60;;
21339;SDS011;10828;47.064;15.422;2023-08-06T03:18:24;3.40;;;2.00;;
21339;SDS011;10828;47.064;15.422;2023-08-06T03:20:53;3.23;;;1.60;;
21339;SDS011;10828;47.064;15.422;2023-08-06T03:23:19;3.17;;;1.80;;
21339;SDS011;10828;47.064;15.422;2023-08-06T03:25:45;2.70;;;1.67;;
21339;SDS011;10828;47.064;15.422;2023-08-06T03:28:11;4.57;;;2.13;;
21339;SDS011;10828;47.064;15.422;2023-08-06T03:30:37;2.90;;;1.60;;
21339;SDS011;10828;47.064;15.422;2023-08-06T03:33:02;4.37;;;1.70;;
21339;SDS011;10828;47.064;15.422;2023-08-06T03:35:28;5.00;;;1.70;;
21339;SDS011;10828;47.064;15.422;2023-08-06T03:37:54;6.80;;;1.90;;
21339;SDS011;10828;47.064;15.422;2023-08-06T03:40:19;6.60;;;1.83;;
21339;SDS011;10828;47.064;15.422;2023-08-06T03:42:45;6.60;;;2.17;;
21339;SDS011;10828;47.064;15.422;2023-08-06T03:45:10;3.20;;;1.70;;
21339;SDS011;10828;47.064;15.422;2023-08-06T03:47:36;5.33;;;1.80;;
21339;SDS011;10828;47.064;15.422;2023-08-06T03:50:01;3.73;;;1.80;;
21339;SDS011;10828;47.064;15.422;2023-08-06T03:52:27;3.23;;;1.80;;
21339;SDS011;10828;47.064;15.422;2023-08-06T03:54:53;5.90;;;2.10;;
21339;SDS011;10828;47.064;15.422;2023-08-06T03:57:18;3.80;;;1.87;;
21339;SDS011;10828;47.064;15.422;2023-08-06T03:59:44;3.43;;;1.83;;
21339;SDS011;10828;47.064;15.422;2023-08-06T04:02:09;5.10;;;2.60;;
21339;SDS011;10828;47.064;15.422;2023-08-06T04:04:35;9.00;;;1.87;;
21339;SDS011;10828;47.064;15.422;2023-08-06T04:07:01;4.90;;;2.33;;
21339;SDS011;10828;47.064;15.422;2023-08-06T04:09:28;8.33;;;2.97;;
21339;SDS011;10828;47.064;15.422;2023-08-06T04:11:53;6.63;;;3.23;;
21339;SDS011;10828;47.064;15.422;2023-08-06T04:14:19;5.43;;;2.87;;
21339;SDS011;10828;47.064;15.422;2023-08-06T04:16:45;7.03;;;2.50;;
21339;SDS011;10828;47.064;15.422;2023-08-06T04:19:10;3.80;;;2.00;;
21339;SDS011;10828;47.064;15.422;2023-08-06T04:21:36;3.47;;;1.90;;
21339;SDS011;10828;47.064;15.422;2023-08-06T04:24:01;3.57;;;1.70;;
21339;SDS011;10828;47.064;15.422;2023-08-06T04:26:27;5.27;;;1.80;;
21339;SDS011;10828;47.064;15.422;2023-08-06T04:28:53;3.67;;;1.77;;
21339;SDS011;10828;47.064;15.422;2023-08-06T04:31:18;6.33;;;2.10;;
21339;SDS011;10828;47.064;15.422;2023-08-06T04:33:44;4.03;;;2.20;;
21339;SDS011;10828;47.064;15.422;2023-08-06T04:36:09;3.40;;;1.90;;
21339;SDS011;10828;47.064;15.422;2023-08-06T04:38:35;4.07;;;2.20;;
21339;SDS011;10828;47.064;15.422;2023-08-06T04:41:02;8.60;;;2.80;;
21339;SDS011;10828;47.064;15.422;2023-08-06T04:43:28;8.43;;;2.73;;
21339;SDS011;10828;47.064;15.422;2023-08-06T04:45:54;5.70;;;2.10;;
21339;SDS011;10828;47.064;15.422;2023-08-06T04:48:20;5.13;;;2.20;;
21339;SDS011;10828;47.064;15.422;2023-08-06T04:50:48;6.13;;;2.10;;
21339;SDS011;10828;47.064;15.422;2023-08-06T04:53:14;4.37;;;2.47;;
21339;SDS011;10828;47.064;15.422;2023-08-06T04:55:40;5.33;;;2.50;;
21339;SDS011;10828;47.064;15.422;2023-08-06T04:58:11;4.70;;;2.67;;
21339;SDS011;10828;47.064;15.422;2023-08-06T05:00:38;4.93;;;2.80;;
21339;SDS011;10828;47.064;15.422;2023-08-06T05:03:04;4.70;;;2.33;;
21339;SDS011;10828;47.064;15.422;2023-08-06T05:05:30;4.30;;;2.60;;
21339;SDS011;10828;47.064;15.422;2023-08-06T05:07:56;5.37;;;3.37;;
21339;SDS011;10828;47.064;15.422;2023-08-06T05:10:25;6.77;;;3.40;;
21339;SDS011;10828;47.064;15.422;2023-08-06T05:12:51;5.70;;;3.40;;
21339;SDS011;10828;47.064;15.422;2023-08-06T05:15:17;8.17;;;4.30;;
21339;SDS011;10828;47.064;15.422;2023-08-06T05:17:43;9.00;;;4.20;;
21339;SDS011;10828;47.064;15.422;2023-08-06T05:20:08;6.53;;;3.87;;
21339;SDS011;10828;47.064;15.422;2023-08-06T05:22:35;8.37;;;4.90;;
21339;SDS011;10828;47.064;15.422;2023-08-06T05:25:00;14.23;;;5.07;;
21339;SDS011;10828;47.064;15.422;2023-08-06T05:27:26;10.37;;;4.70;;
21339;SDS011;10828;47.064;15.422;2023-08-06T05:29:54;8.37;;;4.53;;
21339;SDS011;10828;47.064;15.422;2023-08-06T05:32:21;7.47;;;4.40;;
21339;SDS011;10828;47.064;15.422;2023-08-06T05:34:47;7.27;;;3.67;;
21339;SDS011;10828;47.064;15.422;2023-08-06T05:37:12;5.40;;;3.47;;
21339;SDS011;10828;47.064;15.422;2023-08-06T05:39:38;5.07;;;2.93;;
21339;SDS011;10828;47.064;15.422;2023-08-06T05:42:03;5.63;;;2.80;;
21339;SDS011;10828;47.064;15.422;2023-08-06T05:44:29;5.47;;;3.10;;
21339;SDS011;10828;47.064;15.422;2023-08-06T05:46:55;6.10;;;3.60;;
21339;SDS011;10828;47.064;15.422;2023-08-06T05:49:20;9.60;;;4.23;;
21339;SDS011;10828;47.064;15.422;2023-08-06T05:51:47;7.80;;;3.87;;
21339;SDS011;10828;47.064;15.422;2023-08-06T05:54:13;6.97;;;3.90;;
21339;SDS011;10828;47.064;15.422;2023-08-06T05:56:39;10.83;;;4.13;;
21339;SDS011;10828;47.064;15.422;2023-08-06T05:59:04;6.97;;;3.93;;
21339;SDS011;10828;47.064;15.422;2023-08-06T06:01:30;7.70;;;4.03;;
21339;SDS011;10828;47.064;15.422;2023-08-06T06:03:56;8.47;;;4.87;;
21339;SDS011;10828;47.064;15.422;2023-08-06T06:06:21;8.77;;;4.53;;
21339;SDS011;10828;47.064;15.422;2023-08-06T06:08:47;8.57;;;5.23;;
21339;SDS011;10828;47.064;15.422;2023-08-06T06:11:12;8.67;;;4.43;;
21339;SDS011;10828;47.064;15.422;2023-08-06T06:13:38;10.03;;;4.70;;
21339;SDS011;10828;47.064;15.422;2023-08-06T06:16:03;8.83;;;4.30;;
21339;SDS011;10828;47.064;15.422;2023-08-06T06:18:30;9.63;;;4.50;;
21339;SDS011;10828;47.064;15.422;2023-08-06T06:20:56;7.60;;;3.87;;
21339;SDS011;10828;47.064;15.422;2023-08-06T06:23:21;9.00;;;3.87;;
21339;SDS011;10828;47.064;15.422;2023-08-06T06:25:48;9.30;;;4.00;;
21339;SDS011;10828;47.064;15.422;2023-08-06T06:28:16;5.43;;;3.40;;
21339;SDS011;10828;47.064;15.422;2023-08-06T06:30:42;7.73;;;3.37;;
21339;SDS011;10828;47.064;15.422;2023-08-06T06:33:08;6.43;;;2.20;;
21339;SDS011;10828;47.064;15.422;2023-08-06T06:35:33;4.23;;;2.07;;
21339;SDS011;10828;47.064;15.422;2023-08-06T06:37:59;4.47;;;2.40;;
21339;SDS011;10828;47.064;15.422;2023-08-06T06:40:25;4.47;;;2.40;;
21339;SDS011;10828;47.064;15.422;2023-08-06T06:42:51;3.87;;;1.70;;
21339;SDS011;10828;47.064;15.422;2023-08-06T06:45:16;4.47;;;2.23;;
21339;SDS011;10828;47.064;15.422;2023-08-06T06:47:42;3.80;;;2.10;;
21339;SDS011;10828;47.064;15.422;2023-08-06T06:50:08;9.17;;;4.30;;
21339;SDS011;10828;47.064;15.422;2023-08-06T06:52:34;6.27;;;2.50;;
21339;SDS011;10828;47.064;15.422;2023-08-06T06:55:00;4.83;;;2.47;;
21339;SDS011;10828;47.064;15.422;2023-08-06T06:57:26;6.37;;;3.13;;
21339;SDS011;10828;47.064;15.422;2023-08-06T06:59:51;6.70;;;2.93;;
21339;SDS011;10828;47.064;15.422;2023-08-06T07:02:17;12.73;;;2.50;;
21339;SDS011;10828;47.064;15.422;2023-08-06T07:04:42;4.17;;;2.40;;
21339;SDS011;10828;47.064;15.422;2023-08-06T07:07:08;4.13;;;2.40;;
21339;SDS011;10828;47.064;15.422;2023-08-06T07:09:33;6.77;;;2.63;;
21339;SDS011;10828;47.064;15.422;2023-08-06T07:11:59;5.53;;;2.80;;
21339;SDS011;10828;47.064;15.422;2023-08-06T07:14:25;8.27;;;2.70;;
21339;SDS011;10828;47.064;15.422;2023-08-06T07:16:51;4.53;;;2.50;;
21339;SDS011;10828;47.064;15.422;2023-08-06T07:19:16;5.67;;;2.67;;
21339;SDS011;10828;47.064;15.422;2023-08-06T07:21:42;3.53;;;1.90;;
21339;SDS011;10828;47.064;15.422;2023-08-06T07:24:07;7.13;;;2.73;;
21339;SDS011;10828;47.064;15.422;2023-08-06T07:26:33;7.63;;;2.80;;
21339;SDS011;10828;47.064;15.422;2023-08-06T07:28:59;5.00;;;2.77;;
21339;SDS011;10828;47.064;15.422;2023-08-06T07:31:24;7.23;;;2.40;;
21339;SDS011;10828;47.064;15.422;2023-08-06T07:33:50;5.57;;;2.83;;
21339;SDS011;10828;47.064;15.422;2023-08-06T07:36:16;7.20;;;2.73;;
21339;SDS011;10828;47.064;15.422;2023-08-06T07:38:41;6.10;;;3.07;;
21339;SDS011;10828;47.064;15.422;2023-08-06T07:41:08;8.97;;;2.77;;
21339;SDS011;10828;47.064;15.422;2023-08-06T07:43:34;8.37;;;2.87;;
21339;SDS011;10828;47.064;15.422;2023-08-06T07:46:00;6.30;;;2.30;;
21339;SDS011;10828;47.064;15.422;2023-08-06T07:48:27;3.97;;;1.90;;
21339;SDS011;10828;47.064;15.422;2023-08-06T07:50:53;7.37;;;2.40;;
21339;SDS011;10828;47.064;15.422;2023-08-06T07:53:20;5.03;;;2.27;;
21339;SDS011;10828;47.064;15.422;2023-08-06T07:55:50;5.80;;;2.00;;
21339;SDS011;10828;47.064;15.422;2023-08-06T07:58:16;4.70;;;2.70;;
21339;SDS011;10828;47.064;15.422;2023-08-06T08:00:42;4.23;;;2.40;;
21339;SDS011;10828;47.064;15.422;2023-08-06T08:03:10;3.93;;;1.57;;
21339;SDS011;10828;47.064;15.422;2023-08-06T08:05:39;2.50;;;1.30;;
21339;SDS011;10828;47.064;15.422;2023-08-06T08:08:05;3.33;;;1.20;;
21339;SDS011;10828;47.064;15.422;2023-08-06T08:10:31;2.03;;;1.13;;
21339;SDS011;10828;47.064;15.422;2023-08-06T08:12:58;3.20;;;0.70;;
21339;SDS011;10828;47.064;15.422;2023-08-06T08:15:24;5.47;;;1.17;;
21339;SDS011;10828;47.064;15.422;2023-08-06T08:17:53;2.30;;;1.10;;
21339;SDS011;10828;47.064;15.422;2023-08-06T08:20:20;1.30;;;0.90;;
21339;SDS011;10828;47.064;15.422;2023-08-06T08:22:45;2.77;;;1.20;;
21339;SDS011;10828;47.064;15.422;2023-08-06T08:25:11;3.13;;;1.70;;
21339;SDS011;10828;47.064;15.422;2023-08-06T08:27:37;2.00;;;1.03;;
21339;SDS011;10828;47.064;15.422;2023-08-06T08:30:03;4.03;;;1.20;;
21339;SDS011;10828;47.064;15.422;2023-08-06T08:32:29;2.87;;;1.33;;
21339;SDS011;10828;47.064;15.422;2023-08-06T08:34:54;2.90;;;0.90;;
21339;SDS011;10828;47.064;15.422;2023-08-06T08:37:20;5.67;;;1.60;;
21339;SDS011;10828;47.064;15.422;2023-08-06T08:39:45;4.77;;;1.73;;
21339;SDS011;10828;47.064;15.422;2023-08-06T08:42:11;2.87;;;1.20;;
21339;SDS011;10828;47.064;15.422;2023-08-06T08:44:37;3.63;;;1.30;;
21339;SDS011;10828;47.064;15.422;2023-08-06T08:47:05;5.17;;;1.33;;
21339;SDS011;10828;47.064;15.422;2023-08-06T08:49:34;3.73;;;1.60;;
21339;SDS011;10828;47.064;15.422;2023-08-06T08:52:01;5.23;;;1.70;;
21339;SDS011;10828;47.064;15.422;2023-08-06T08:54:31;2.90;;;1.10;;
21339;SDS011;10828;47.064;15.422;2023-08-06T08:56:58;3.60;;;1.30;;
21339;SDS011;10828;47.064;15.422;2023-08-06T08:59:23;3.63;;;1.30;;
21339;SDS011;10828;47.064;15.422;2023-08-06T09:01:49;5.63;;;1.60;;
21339;SDS011;10828;47.064;15.422;2023-08-06T09:04:16;2.03;;;1.20;;
21339;SDS011;10828;47.064;15.422;2023-08-06T09:06:42;2.43;;;1.27;;
21339;SDS011;10828;47.064;15.422;2023-08-06T09:09:31;2.50;;;1.17;;
21339;SDS011;10828;47.064;15.422;2023-08-06T09:12:00;4.63;;;1.50;;
21339;SDS011;10828;47.064;15.422;2023-08-06T09:14:29;3.50;;;1.63;;
21339;SDS011;10828;47.064;15.422;2023-08-06T09:16:54;7.23;;;1.60;;
21339;SDS011;10828;47.064;15.422;2023-08-06T09:19:21;5.63;;;1.90;;
21339;SDS011;10828;47.064;15.422;2023-08-06T09:21:47;3.80;;;1.60;;
21339;SDS011;10828;47.064;15.422;2023-08-06T09:24:16;3.03;;;1.60;;
21339;SDS011;10828;47.064;15.422;2023-08-06T09:26:43;5.40;;;1.80;;
21339;SDS011;10828;47.064;15.422;2023-08-06T09:29:10;2.87;;;1.50;;
21339;SDS011;10828;47.064;15.422;2023-08-06T09:34:16;3.37;;;1.20;;
21339;SDS011;10828;47.064;15.422;2023-08-06T09:36:43;3.30;;;1.20;;
21339;SDS011;10828;47.064;15.422;2023-08-06T09:39:15;3.70;;;1.70;;
21339;SDS011;10828;47.064;15.422;2023-08-06T09:41:41;3.90;;;2.00;;
21339;SDS011;10828;47.064;15.422;2023-08-06T09:44:14;5.60;;;1.77;;
21339;SDS011;10828;47.064;15.422;2023-08-06T09:46:42;4.13;;;1.80;;
21339;SDS011;10828;47.064;15.422;2023-08-06T09:49:08;3.27;;;1.60;;
21339;SDS011;10828;47.064;15.422;2023-08-06T09:51:35;2.97;;;1.43;;
21339;SDS011;10828;47.064;15.422;2023-08-06T09:54:04;9.63;;;2.20;;
21339;SDS011;10828;47.064;15.422;2023-08-06T09:56:32;4.20;;;2.33;;
21339;SDS011;10828;47.064;15.422;2023-08-06T09:59:02;5.20;;;2.17;;
21339;SDS011;10828;47.064;15.422;2023-08-06T10:01:33;7.57;;;2.27;;
21339;SDS011;10828;47.064;15.422;2023-08-06T10:04:03;4.50;;;1.53;;
21339;SDS011;10828;47.064;15.422;2023-08-06T10:06:33;5.70;;;1.80;;
21339;SDS011;10828;47.064;15.422;2023-08-06T10:09:03;5.17;;;1.60;;
21339;SDS011;10828;47.064;15.422;2023-08-06T10:11:30;3.50;;;1.53;;
21339;SDS011;10828;47.064;15.422;2023-08-06T10:14:06;3.20;;;1.77;;
21339;SDS011;10828;47.064;15.422;2023-08-06T10:16:39;3.07;;;1.50;;
21339;SDS011;10828;47.064;15.422;2023-08-06T10:19:05;3.20;;;1.47;;
21339;SDS011;10828;47.064;15.422;2023-08-06T10:21:38;4.47;;;1.40;;
21339;SDS011;10828;47.064;15.422;2023-08-06T10:24:03;2.93;;;1.57;;
21339;SDS011;10828;47.064;15.422;2023-08-06T10:26:35;6.67;;;1.47;;
21339;SDS011;10828;47.064;15.422;2023-08-06T10:29:00;2.63;;;1.20;;
21339;SDS011;10828;47.064;15.422;2023-08-06T10:34:20;2.60;;;1.27;;
21339;SDS011;10828;47.064;15.422;2023-08-06T10:36:46;1.97;;;1.00;;
21339;SDS011;10828;47.064;15.422;2023-08-06T10:39:14;2.53;;;1.20;;
21339;SDS011;10828;47.064;15.422;2023-08-06T10:41:41;4.77;;;1.00;;
21339;SDS011;10828;47.064;15.422;2023-08-06T10:44:09;2.73;;;1.00;;
21339;SDS011;10828;47.064;15.422;2023-08-06T10:46:35;3.77;;;1.43;;
21339;SDS011;10828;47.064;15.422;2023-08-06T10:49:03;1.93;;;0.90;;
21339;SDS011;10828;47.064;15.422;2023-08-06T10:51:29;1.93;;;1.03;;
21339;SDS011;10828;47.064;15.422;2023-08-06T10:53:55;3.23;;;1.40;;
21339;SDS011;10828;47.064;15.422;2023-08-06T10:56:23;2.70;;;1.07;;
21339;SDS011;10828;47.064;15.422;2023-08-06T10:58:51;2.57;;;0.90;;
21339;SDS011;10828;47.064;15.422;2023-08-06T11:01:19;2.97;;;1.00;;
21339;SDS011;10828;47.064;15.422;2023-08-06T11:03:46;2.57;;;1.00;;
21339;SDS011;10828;47.064;15.422;2023-08-06T11:06:17;2.90;;;1.00;;
21339;SDS011;10828;47.064;15.422;2023-08-06T11:08:51;2.67;;;1.00;;
21339;SDS011;10828;47.064;15.422;2023-08-06T11:11:18;1.30;;;0.60;;
21339;SDS011;10828;47.064;15.422;2023-08-06T11:13:48;1.70;;;0.80;;
21339;SDS011;10828;47.064;15.422;2023-08-06T11:16:18;1.53;;;0.70;;
21339;SDS011;10828;47.064;15.422;2023-08-06T11:18:46;1.83;;;0.90;;
21339;SDS011;10828;47.064;15.422;2023-08-06T11:21:12;2.67;;;0.90;;
21339;SDS011;10828;47.064;15.422;2023-08-06T11:23:38;1.33;;;0.70;;
21339;SDS011;10828;47.064;15.422;2023-08-06T11:26:05;2.53;;;0.90;;
21339;SDS011;10828;47.064;15.422;2023-08-06T11:28:30;2.60;;;0.80;;
21339;SDS011;10828;47.064;15.422;2023-08-06T11:30:56;1.83;;;0.90;;
21339;SDS011;10828;47.064;15.422;2023-08-06T11:33:26;3.60;;;1.03;;
21339;SDS011;10828;47.064;15.422;2023-08-06T11:35:52;2.80;;;1.00;;
21339;SDS011;10828;47.064;15.422;2023-08-06T11:38:21;3.00;;;1.80;;
21339;SDS011;10828;47.064;15.422;2023-08-06T11:40:50;1.80;;;0.70;;
21339;SDS011;10828;47.064;15.422;2023-08-06T11:43:18;3.07;;;0.70;;
21339;SDS011;10828;47.064;15.422;2023-08-06T11:45:44;2.10;;;0.70;;
21339;SDS011;10828;47.064;15.422;2023-08-06T11:48:10;2.13;;;0.80;;
21339;SDS011;10828;47.064;15.422;2023-08-06T11:50:36;1.70;;;0.80;;
21339;SDS011;10828;47.064;15.422;2023-08-06T11:53:04;3.83;;;0.90;;
21339;SDS011;10828;47.064;15.422;2023-08-06T11:55:29;3.57;;;0.70;;
21339;SDS011;10828;47.064;15.422;2023-08-06T11:57:56;2.97;;;0.70;;
21339;SDS011;10828;47.064;15.422;2023-08-06T12:00:23;1.70;;;0.70;;
21339;SDS011;10828;47.064;15.422;2023-08-06T12:02:50;3.70;;;0.67;;
21339;SDS011;10828;47.064;15.422;2023-08-06T12:05:17;1.83;;;0.63;;
21339;SDS011;10828;47.064;15.422;2023-08-06T12:07:50;1.70;;;0.67;;
21339;SDS011;10828;47.064;15.422;2023-08-06T12:10:18;1.30;;;0.60;;
21339;SDS011;10828;47.064;15.422;2023-08-06T12:12:45;1.13;;;0.50;;
21339;SDS011;10828;47.064;15.422;2023-08-06T12:15:11;2.00;;;0.80;;
21339;SDS011;10828;47.064;15.422;2023-08-06T12:17:37;1.20;;;0.70;;
21339;SDS011;10828;47.064;15.422;2023-08-06T12:20:03;1.30;;;0.60;;
21339;SDS011;10828;47.064;15.422;2023-08-06T12:22:30;1.77;;;0.60;;
21339;SDS011;10828;47.064;15.422;2023-08-06T12:25:01;1.20;;;0.40;;
21339;SDS011;10828;47.064;15.422;2023-08-06T12:27:28;2.00;;;0.50;;
21339;SDS011;10828;47.064;15.422;2023-08-06T12:30:00;2.37;;;0.67;;
21339;SDS011;10828;47.064;15.422;2023-08-06T12:32:26;1.80;;;0.70;;
21339;SDS011;10828;47.064;15.422;2023-08-06T12:34:52;1.43;;;0.70;;
21339;SDS011;10828;47.064;15.422;2023-08-06T12:37:17;2.47;;;0.87;;
21339;SDS011;10828;47.064;15.422;2023-08-06T12:39:43;0.90;;;0.60;;
21339;SDS011;10828;47.064;15.422;2023-08-06T12:42:08;1.10;;;0.70;;
21339;SDS011;10828;47.064;15.422;2023-08-06T12:44:35;1.33;;;0.40;;
21339;SDS011;10828;47.064;15.422;2023-08-06T12:47:01;3.30;;;0.73;;
21339;SDS011;10828;47.064;15.422;2023-08-06T12:49:26;1.43;;;0.67;;
21339;SDS011;10828;47.064;15.422;2023-08-06T12:51:52;2.10;;;0.50;;
21339;SDS011;10828;47.064;15.422;2023-08-06T12:54:19;1.47;;;0.50;;
21339;SDS011;10828;47.064;15.422;2023-08-06T12:56:45;1.13;;;0.40;;
21339;SDS011;10828;47.064;15.422;2023-08-06T12:59:13;0.30;;;0.30;;
21339;SDS011;10828;47.064;15.422;2023-08-06T13:01:40;6.13;;;1.03;;
21339;SDS011;10828;47.064;15.422;2023-08-06T13:04:07;13.70;;;5.90;;
21339;SDS011;10828;47.064;15.422;2023-08-06T13:06:33;39.57;;;19.83;;
21339;SDS011;10828;47.064;15.422;2023-08-06T13:09:08;4.90;;;1.93;;
21339;SDS011;10828;47.064;15.422;2023-08-06T13:11:35;3.13;;;0.63;;
21339;SDS011;10828;47.064;15.422;2023-08-06T13:16:34;4.73;;;1.53;;
21339;SDS011;10828;47.064;15.422;2023-08-06T13:19:01;1.57;;;0.37;;
21339;SDS011;10828;47.064;15.422;2023-08-06T13:21:31;2.40;;;1.10;;
21339;SDS011;10828;47.064;15.422;2023-08-06T13:23:59;1.07;;;0.30;;
21339;SDS011;10828;47.064;15.422;2023-08-06T13:26:27;0.60;;;0.30;;
21339;SDS011;10828;47.064;15.422;2023-08-06T13:28:54;1.10;;;0.37;;
21339;SDS011;10828;47.064;15.422;2023-08-06T13:31:22;0.97;;;0.40;;
21339;SDS011;10828;47.064;15.422;2023-08-06T13:33:48;0.80;;;0.20;;
21339;SDS011;10828;47.064;15.422;2023-08-06T13:36:15;0.90;;;0.30;;
21339;SDS011;10828;47.064;15.422;2023-08-06T13:38:42;0.77;;;0.33;;
21339;SDS011;10828;47.064;15.422;2023-08-06T13:41:08;1.00;;;0.40;;
21339;SDS011;10828;47.064;15.422;2023-08-06T13:43:34;2.60;;;0.60;;
21339;SDS011;10828;47.064;15.422;2023-08-06T13:46:00;1.17;;;0.37;;
21339;SDS011;10828;47.064;15.422;2023-08-06T13:48:27;1.17;;;0.50;;
21339;SDS011;10828;47.064;15.422;2023-08-06T13:50:53;0.93;;;0.43;;
21339;SDS011;10828;47.064;15.422;2023-08-06T13:53:19;1.30;;;0.40;;
21339;SDS011;10828;47.064;15.422;2023-08-06T13:55:47;0.93;;;0.40;;
21339;SDS011;10828;47.064;15.422;2023-08-06T13:58:13;1.73;;;0.40;;
21339;SDS011;10828;47.064;15.422;2023-08-06T14:00:39;1.37;;;0.70;;
21339;SDS011;10828;47.064;15.422;2023-08-06T14:03:05;0.67;;;0.20;;
21339;SDS011;10828;47.064;15.422;2023-08-06T14:05:32;1.17;;;0.50;;
21339;SDS011;10828;47.064;15.422;2023-08-06T14:07:58;0.83;;;0.30;;
21339;SDS011;10828;47.064;15.422;2023-08-06T14:10:24;1.10;;;0.40;;
21339;SDS011;10828;47.064;15.422;2023-08-06T14:12:50;2.30;;;0.50;;
21339;SDS011;10828;47.064;15.422;2023-08-06T14:15:17;4.53;;;2.10;;
21339;SDS011;10828;47.064;15.422;2023-08-06T14:17:44;0.00;;;0.00;;
21339;SDS011;10828;47.064;15.422;2023-08-06T14:20:10;0.00;;;0.00;;
21339;SDS011;10828;47.064;15.422;2023-08-06T14:22:37;0.07;;;0.07;;
21339;SDS011;10828;47.064;15.422;2023-08-06T14:25:05;0.00;;;0.00;;
21339;SDS011;10828;47.064;15.422;2023-08-06T14:27:32;0.00;;;0.00;;
21339;SDS011;10828;47.064;15.422;2023-08-06T14:29:59;1.57;;;0.30;;
21339;SDS011;10828;47.064;15.422;2023-08-06T14:32:28;0.87;;;0.40;;
21339;SDS011;10828;47.064;15.422;2023-08-06T14:34:56;3.03;;;0.60;;
21339;SDS011;10828;47.064;15.422;2023-08-06T14:37:25;3.17;;;1.33;;
21339;SDS011;10828;47.064;15.422;2023-08-06T14:39:51;1.20;;;0.60;;
21339;SDS011;10828;47.064;15.422;2023-08-06T14:42:17;1.93;;;0.50;;